Pineville, South Carolina
Current Conditions -  °F | °C
As of 7:35 AM on Thursday 27 Nov 2014 (Local Time) from KMKS Reporting Station
Clear Clear  
Wind Chill:   Ceiling: Unl
Heat Index:   Visibility: 10mi
Dew Point:   Wind: 8mph
Humidity: 81%   Direction: 240°WSW
Pressure: 30.09"   Gusts: NA
Location:  33.43°N, 80.02°W
Report Text: KMKS 271235Z AUTO 24007KT 10SM CLR 07/04 A3009 RMK AO2
Loading
Personal Weather Stations






























Interactive Weather Map New forecast layout! Learn more

10-Day Weather Forecast

Advertisements
Track Severe Weather on mobile